sensor_id;sensor_type;location;lat;lon;timestamp;P1;P2;P0
63305;PMS5003;50735;52.060;1.248;2023-06-22T00:00:04;8;7;
63305;PMS5003;50735;52.060;1.248;2023-06-22T00:02:37;9;9;
63305;PMS5003;50735;52.060;1.248;2023-06-22T00:05:09;10;8;
63305;PMS5003;50735;52.060;1.248;2023-06-22T00:07:41;8;8;
63305;PMS5003;50735;52.060;1.248;2023-06-22T00:10:12;8;8;
63305;PMS5003;50735;52.060;1.248;2023-06-22T00:12:44;8;7;
63305;PMS5003;50735;52.060;1.248;2023-06-22T00:15:16;14;10;
63305;PMS5003;50735;52.060;1.248;2023-06-22T00:17:49;10;10;
63305;PMS5003;50735;52.060;1.248;2023-06-22T00:20:22;8;8;
63305;PMS5003;50735;52.060;1.248;2023-06-22T00:22:55;9;9;
63305;PMS5003;50735;52.060;1.248;2023-06-22T00:25:28;9;9;
63305;PMS5003;50735;52.060;1.248;2023-06-22T00:28:00;9;9;
63305;PMS5003;50735;52.060;1.248;2023-06-22T00:30:32;10;9;
63305;PMS5003;50735;52.060;1.248;2023-06-22T00:33:04;12;10;
63305;PMS5003;50735;52.060;1.248;2023-06-22T00:35:35;9;8;
63305;PMS5003;50735;52.060;1.248;2023-06-22T00:38:07;9;9;
63305;PMS5003;50735;52.060;1.248;2023-06-22T00:40:39;7;7;
63305;PMS5003;50735;52.060;1.248;2023-06-22T00:43:11;9;9;
63305;PMS5003;50735;52.060;1.248;2023-06-22T00:45:42;8;8;
63305;PMS5003;50735;52.060;1.248;2023-06-22T00:48:14;16;13;
63305;PMS5003;50735;52.060;1.248;2023-06-22T00:50:47;8;8;
63305;PMS5003;50735;52.060;1.248;2023-06-22T00:53:18;9;9;
63305;PMS5003;50735;52.060;1.248;2023-06-22T00:55:51;9;9;
63305;PMS5003;50735;52.060;1.248;2023-06-22T00:58:23;9;9;
63305;PMS5003;50735;52.060;1.248;2023-06-22T01:00:55;11;9;
63305;PMS5003;50735;52.060;1.248;2023-06-22T01:03:26;8;8;
63305;PMS5003;50735;52.060;1.248;2023-06-22T01:05:59;10;10;
63305;PMS5003;50735;52.060;1.248;2023-06-22T01:08:38;10;7;
63305;PMS5003;50735;52.060;1.248;2023-06-22T01:11:18;12;9;
63305;PMS5003;50735;52.060;1.248;2023-06-22T01:13:57;11;11;
63305;PMS5003;50735;52.060;1.248;2023-06-22T01:16:37;10;10;
63305;PMS5003;50735;52.060;1.248;2023-06-22T01:19:17;11;10;
63305;PMS5003;50735;52.060;1.248;2023-06-22T01:22:00;12;11;
63305;PMS5003;50735;52.060;1.248;2023-06-22T01:24:38;10;10;
63305;PMS5003;50735;52.060;1.248;2023-06-22T01:27:24;9;9;
63305;PMS5003;50735;52.060;1.248;2023-06-22T01:30:04;10;10;
63305;PMS5003;50735;52.060;1.248;2023-06-22T01:32:38;15;10;
63305;PMS5003;50735;52.060;1.248;2023-06-22T01:35:12;13;11;
63305;PMS5003;50735;52.060;1.248;2023-06-22T01:37:44;12;9;
63305;PMS5003;50735;52.060;1.248;2023-06-22T01:40:18;11;10;
63305;PMS5003;50735;52.060;1.248;2023-06-22T01:42:51;7;7;
63305;PMS5003;50735;52.060;1.248;2023-06-22T01:45:24;10;9;
63305;PMS5003;50735;52.060;1.248;2023-06-22T01:47:57;12;9;
63305;PMS5003;50735;52.060;1.248;2023-06-22T01:50:31;13;10;
63305;PMS5003;50735;52.060;1.248;2023-06-22T01:53:03;12;9;
63305;PMS5003;50735;52.060;1.248;2023-06-22T01:55:34;11;11;
63305;PMS5003;50735;52.060;1.248;2023-06-22T01:58:06;14;9;
63305;PMS5003;50735;52.060;1.248;2023-06-22T02:00:38;11;9;
63305;PMS5003;50735;52.060;1.248;2023-06-22T02:03:14;8;7;
63305;PMS5003;50735;52.060;1.248;2023-06-22T02:05:50;14;11;
63305;PMS5003;50735;52.060;1.248;2023-06-22T02:08:25;10;9;
63305;PMS5003;50735;52.060;1.248;2023-06-22T02:11:01;12;11;
63305;PMS5003;50735;52.060;1.248;2023-06-22T02:13:35;10;8;
63305;PMS5003;50735;52.060;1.248;2023-06-22T02:16:07;11;9;
63305;PMS5003;50735;52.060;1.248;2023-06-22T02:18:39;14;11;
63305;PMS5003;50735;52.060;1.248;2023-06-22T02:21:18;12;11;
63305;PMS5003;50735;52.060;1.248;2023-06-22T02:23:50;18;15;
63305;PMS5003;50735;52.060;1.248;2023-06-22T02:26:22;11;11;
63305;PMS5003;50735;52.060;1.248;2023-06-22T02:28:56;12;11;
63305;PMS5003;50735;52.060;1.248;2023-06-22T02:31:28;10;10;
63305;PMS5003;50735;52.060;1.248;2023-06-22T02:34:00;11;11;
63305;PMS5003;50735;52.060;1.248;2023-06-22T02:36:32;12;11;
63305;PMS5003;50735;52.060;1.248;2023-06-22T02:39:04;13;12;
63305;PMS5003;50735;52.060;1.248;2023-06-22T02:41:36;13;12;
63305;PMS5003;50735;52.060;1.248;2023-06-22T02:44:08;17;14;
63305;PMS5003;50735;52.060;1.248;2023-06-22T02:46:39;13;12;
63305;PMS5003;50735;52.060;1.248;2023-06-22T02:49:11;12;11;
63305;PMS5003;50735;52.060;1.248;2023-06-22T02:51:45;14;13;
63305;PMS5003;50735;52.060;1.248;2023-06-22T02:54:18;11;11;
63305;PMS5003;50735;52.060;1.248;2023-06-22T02:56:50;14;13;
63305;PMS5003;50735;52.060;1.248;2023-06-22T02:59:22;15;13;
63305;PMS5003;50735;52.060;1.248;2023-06-22T03:01:54;9;9;
63305;PMS5003;50735;52.060;1.248;2023-06-22T03:04:26;13;13;
63305;PMS5003;50735;52.060;1.248;2023-06-22T03:06:58;13;13;
63305;PMS5003;50735;52.060;1.248;2023-06-22T03:09:29;10;10;
63305;PMS5003;50735;52.060;1.248;2023-06-22T03:12:01;12;12;
63305;PMS5003;50735;52.060;1.248;2023-06-22T03:14:34;13;13;
63305;PMS5003;50735;52.060;1.248;2023-06-22T03:17:06;11;11;
63305;PMS5003;50735;52.060;1.248;2023-06-22T03:19:37;11;11;
63305;PMS5003;50735;52.060;1.248;2023-06-22T03:22:09;11;11;
63305;PMS5003;50735;52.060;1.248;2023-06-22T03:24:41;15;13;
63305;PMS5003;50735;52.060;1.248;2023-06-22T03:27:13;12;12;
63305;PMS5003;50735;52.060;1.248;2023-06-22T03:29:45;12;12;
63305;PMS5003;50735;52.060;1.248;2023-06-22T03:32:17;14;13;
63305;PMS5003;50735;52.060;1.248;2023-06-22T03:34:48;12;10;
63305;PMS5003;50735;52.060;1.248;2023-06-22T03:37:20;14;13;
63305;PMS5003;50735;52.060;1.248;2023-06-22T03:39:52;15;14;
63305;PMS5003;50735;52.060;1.248;2023-06-22T03:42:25;13;12;
63305;PMS5003;50735;52.060;1.248;2023-06-22T03:44:57;16;14;
63305;PMS5003;50735;52.060;1.248;2023-06-22T03:47:29;14;13;
63305;PMS5003;50735;52.060;1.248;2023-06-22T03:50:01;20;16;
63305;PMS5003;50735;52.060;1.248;2023-06-22T03:52:33;19;13;
63305;PMS5003;50735;52.060;1.248;2023-06-22T03:55:05;19;14;
63305;PMS5003;50735;52.060;1.248;2023-06-22T03:57:38;13;11;
63305;PMS5003;50735;52.060;1.248;2023-06-22T04:00:10;12;12;
63305;PMS5003;50735;52.060;1.248;2023-06-22T04:02:42;11;11;
63305;PMS5003;50735;52.060;1.248;2023-06-22T04:05:14;13;11;
63305;PMS5003;50735;52.060;1.248;2023-06-22T04:07:46;15;13;
63305;PMS5003;50735;52.060;1.248;2023-06-22T04:10:18;13;12;
63305;PMS5003;50735;52.060;1.248;2023-06-22T04:12:50;21;19;
63305;PMS5003;50735;52.060;1.248;2023-06-22T04:15:22;15;12;
63305;PMS5003;50735;52.060;1.248;2023-06-22T04:17:54;13;13;
63305;PMS5003;50735;52.060;1.248;2023-06-22T04:20:27;17;17;
63305;PMS5003;50735;52.060;1.248;2023-06-22T04:22:59;20;16;
63305;PMS5003;50735;52.060;1.248;2023-06-22T04:25:30;14;14;
63305;PMS5003;50735;52.060;1.248;2023-06-22T04:28:02;14;13;
63305;PMS5003;50735;52.060;1.248;2023-06-22T04:30:34;14;13;
63305;PMS5003;50735;52.060;1.248;2023-06-22T04:33:05;22;19;
63305;PMS5003;50735;52.060;1.248;2023-06-22T04:35:37;14;14;
63305;PMS5003;50735;52.060;1.248;2023-06-22T04:38:09;18;15;
63305;PMS5003;50735;52.060;1.248;2023-06-22T04:40:41;12;9;
63305;PMS5003;50735;52.060;1.248;2023-06-22T04:43:12;14;13;
63305;PMS5003;50735;52.060;1.248;2023-06-22T04:45:44;15;13;
63305;PMS5003;50735;52.060;1.248;2023-06-22T04:48:16;15;12;
63305;PMS5003;50735;52.060;1.248;2023-06-22T04:50:48;18;16;
63305;PMS5003;50735;52.060;1.248;2023-06-22T04:53:19;15;15;
63305;PMS5003;50735;52.060;1.248;2023-06-22T04:55:51;13;13;
63305;PMS5003;50735;52.060;1.248;2023-06-22T04:58:23;14;14;
63305;PMS5003;50735;52.060;1.248;2023-06-22T05:00:55;22;20;
63305;PMS5003;50735;52.060;1.248;2023-06-22T05:03:26;17;14;
63305;PMS5003;50735;52.060;1.248;2023-06-22T05:05:58;16;15;
63305;PMS5003;50735;52.060;1.248;2023-06-22T05:08:30;16;14;
63305;PMS5003;50735;52.060;1.248;2023-06-22T05:11:01;15;14;
63305;PMS5003;50735;52.060;1.248;2023-06-22T05:13:34;21;16;
63305;PMS5003;50735;52.060;1.248;2023-06-22T05:16:05;15;15;
63305;PMS5003;50735;52.060;1.248;2023-06-22T05:18:38;17;15;
63305;PMS5003;50735;52.060;1.248;2023-06-22T05:21:10;15;15;
63305;PMS5003;50735;52.060;1.248;2023-06-22T05:23:41;19;16;
63305;PMS5003;50735;52.060;1.248;2023-06-22T05:26:13;18;13;
63305;PMS5003;50735;52.060;1.248;2023-06-22T05:28:45;18;14;
63305;PMS5003;50735;52.060;1.248;2023-06-22T05:31:18;16;16;
63305;PMS5003;50735;52.060;1.248;2023-06-22T05:33:51;11;11;
63305;PMS5003;50735;52.060;1.248;2023-06-22T05:36:24;15;15;
63305;PMS5003;50735;52.060;1.248;2023-06-22T05:38:56;14;13;
63305;PMS5003;50735;52.060;1.248;2023-06-22T05:41:28;16;16;
63305;PMS5003;50735;52.060;1.248;2023-06-22T05:44:00;18;16;
63305;PMS5003;50735;52.060;1.248;2023-06-22T05:46:32;20;18;
63305;PMS5003;50735;52.060;1.248;2023-06-22T05:49:04;12;12;
63305;PMS5003;50735;52.060;1.248;2023-06-22T05:51:35;16;12;
63305;PMS5003;50735;52.060;1.248;2023-06-22T05:54:08;14;13;
63305;PMS5003;50735;52.060;1.248;2023-06-22T05:56:39;23;20;
63305;PMS5003;50735;52.060;1.248;2023-06-22T05:59:11;13;13;
63305;PMS5003;50735;52.060;1.248;2023-06-22T06:01:43;18;14;
63305;PMS5003;50735;52.060;1.248;2023-06-22T06:04:14;14;14;
63305;PMS5003;50735;52.060;1.248;2023-06-22T06:06:46;13;13;
63305;PMS5003;50735;52.060;1.248;2023-06-22T06:09:18;16;14;
63305;PMS5003;50735;52.060;1.248;2023-06-22T06:11:50;18;13;
63305;PMS5003;50735;52.060;1.248;2023-06-22T06:14:22;9;7;
63305;PMS5003;50735;52.060;1.248;2023-06-22T06:16:54;13;12;
63305;PMS5003;50735;52.060;1.248;2023-06-22T06:19:26;13;12;
63305;PMS5003;50735;52.060;1.248;2023-06-22T06:21:57;12;10;
63305;PMS5003;50735;52.060;1.248;2023-06-22T06:24:29;14;12;
63305;PMS5003;50735;52.060;1.248;2023-06-22T06:27:02;12;12;
63305;PMS5003;50735;52.060;1.248;2023-06-22T06:29:33;12;10;
63305;PMS5003;50735;52.060;1.248;2023-06-22T06:32:06;11;11;
63305;PMS5003;50735;52.060;1.248;2023-06-22T06:34:39;15;13;
63305;PMS5003;50735;52.060;1.248;2023-06-22T06:37:10;14;13;
63305;PMS5003;50735;52.060;1.248;2023-06-22T06:39:42;15;12;
63305;PMS5003;50735;52.060;1.248;2023-06-22T06:42:14;13;11;
63305;PMS5003;50735;52.060;1.248;2023-06-22T06:44:46;16;14;
63305;PMS5003;50735;52.060;1.248;2023-06-22T06:47:19;17;17;
63305;PMS5003;50735;52.060;1.248;2023-06-22T06:49:51;17;14;
63305;PMS5003;50735;52.060;1.248;2023-06-22T06:52:23;15;15;
63305;PMS5003;50735;52.060;1.248;2023-06-22T06:54:55;15;14;
63305;PMS5003;50735;52.060;1.248;2023-06-22T06:57:27;11;11;
63305;PMS5003;50735;52.060;1.248;2023-06-22T06:59:59;15;13;
63305;PMS5003;50735;52.060;1.248;2023-06-22T07:02:31;15;13;
63305;PMS5003;50735;52.060;1.248;2023-06-22T07:05:03;14;14;
63305;PMS5003;50735;52.060;1.248;2023-06-22T07:07:36;18;17;
63305;PMS5003;50735;52.060;1.248;2023-06-22T07:10:09;14;11;
63305;PMS5003;50735;52.060;1.248;2023-06-22T07:12:42;14;14;
63305;PMS5003;50735;52.060;1.248;2023-06-22T07:15:14;19;13;
63305;PMS5003;50735;52.060;1.248;2023-06-22T07:17:46;15;15;
63305;PMS5003;50735;52.060;1.248;2023-06-22T07:20:18;13;10;
63305;PMS5003;50735;52.060;1.248;2023-06-22T07:22:50;18;17;
63305;PMS5003;50735;52.060;1.248;2023-06-22T07:25:23;15;12;
63305;PMS5003;50735;52.060;1.248;2023-06-22T07:27:57;15;14;
63305;PMS5003;50735;52.060;1.248;2023-06-22T07:30:30;12;11;
63305;PMS5003;50735;52.060;1.248;2023-06-22T07:33:03;13;13;
63305;PMS5003;50735;52.060;1.248;2023-06-22T07:35:35;12;11;
63305;PMS5003;50735;52.060;1.248;2023-06-22T07:38:07;12;10;
63305;PMS5003;50735;52.060;1.248;2023-06-22T07:40:39;9;9;
63305;PMS5003;50735;52.060;1.248;2023-06-22T07:43:10;11;10;
63305;PMS5003;50735;52.060;1.248;2023-06-22T07:45:47;11;11;
63305;PMS5003;50735;52.060;1.248;2023-06-22T07:48:20;13;13;
63305;PMS5003;50735;52.060;1.248;2023-06-22T07:50:52;12;11;
63305;PMS5003;50735;52.060;1.248;2023-06-22T07:53:23;11;9;
63305;PMS5003;50735;52.060;1.248;2023-06-22T07:55:55;14;11;
63305;PMS5003;50735;52.060;1.248;2023-06-22T07:58:27;15;13;
63305;PMS5003;50735;52.060;1.248;2023-06-22T08:00:59;12;11;
63305;PMS5003;50735;52.060;1.248;2023-06-22T08:03:31;8;8;
63305;PMS5003;50735;52.060;1.248;2023-06-22T08:06:02;9;9;
63305;PMS5003;50735;52.060;1.248;2023-06-22T08:08:35;12;7;
63305;PMS5003;50735;52.060;1.248;2023-06-22T08:11:07;8;8;
63305;PMS5003;50735;52.060;1.248;2023-06-22T08:13:39;11;10;
63305;PMS5003;50735;52.060;1.248;2023-06-22T08:16:10;8;8;
63305;PMS5003;50735;52.060;1.248;2023-06-22T08:18:42;7;7;
63305;PMS5003;50735;52.060;1.248;2023-06-22T08:21:14;5;5;
63305;PMS5003;50735;52.060;1.248;2023-06-22T08:23:45;7;7;
63305;PMS5003;50735;52.060;1.248;2023-06-22T08:26:17;9;7;
63305;PMS5003;50735;52.060;1.248;2023-06-22T08:28:49;8;7;
63305;PMS5003;50735;52.060;1.248;2023-06-22T08:31:21;8;7;
63305;PMS5003;50735;52.060;1.248;2023-06-22T08:33:53;7;7;
63305;PMS5003;50735;52.060;1.248;2023-06-22T08:36:25;6;6;
63305;PMS5003;50735;52.060;1.248;2023-06-22T08:38:56;7;6;
63305;PMS5003;50735;52.060;1.248;2023-06-22T08:41:28;6;6;
63305;PMS5003;50735;52.060;1.248;2023-06-22T08:44:01;9;7;
63305;PMS5003;50735;52.060;1.248;2023-06-22T08:46:32;7;6;
63305;PMS5003;50735;52.060;1.248;2023-06-22T08:49:04;10;7;
63305;PMS5003;50735;52.060;1.248;2023-06-22T08:51:36;7;7;
63305;PMS5003;50735;52.060;1.248;2023-06-22T08:54:08;4;4;
63305;PMS5003;50735;52.060;1.248;2023-06-22T08:56:40;8;8;
63305;PMS5003;50735;52.060;1.248;2023-06-22T08:59:11;6;6;
63305;PMS5003;50735;52.060;1.248;2023-06-22T09:01:43;9;7;
63305;PMS5003;50735;52.060;1.248;2023-06-22T09:04:15;8;7;
63305;PMS5003;50735;52.060;1.248;2023-06-22T09:06:46;6;6;
63305;PMS5003;50735;52.060;1.248;2023-06-22T09:09:18;7;5;
63305;PMS5003;50735;52.060;1.248;2023-06-22T09:11:52;7;6;
63305;PMS5003;50735;52.060;1.248;2023-06-22T09:14:24;8;6;
63305;PMS5003;50735;52.060;1.248;2023-06-22T09:16:56;10;9;
63305;PMS5003;50735;52.060;1.248;2023-06-22T09:19:27;8;8;
63305;PMS5003;50735;52.060;1.248;2023-06-22T09:21:59;12;12;
63305;PMS5003;50735;52.060;1.248;2023-06-22T09:24:32;9;8;
63305;PMS5003;50735;52.060;1.248;2023-06-22T09:27:04;9;9;
63305;PMS5003;50735;52.060;1.248;2023-06-22T09:29:37;10;9;
63305;PMS5003;50735;52.060;1.248;2023-06-22T09:32:08;8;8;
63305;PMS5003;50735;52.060;1.248;2023-06-22T09:34:40;7;7;
63305;PMS5003;50735;52.060;1.248;2023-06-22T09:37:12;9;8;
63305;PMS5003;50735;52.060;1.248;2023-06-22T09:39:44;10;8;
63305;PMS5003;50735;52.060;1.248;2023-06-22T09:42:15;7;7;
63305;PMS5003;50735;52.060;1.248;2023-06-22T09:44:47;8;8;
63305;PMS5003;50735;52.060;1.248;2023-06-22T09:47:19;7;7;
63305;PMS5003;50735;52.060;1.248;2023-06-22T09:49:50;8;8;
63305;PMS5003;50735;52.060;1.248;2023-06-22T09:52:22;12;9;
63305;PMS5003;50735;52.060;1.248;2023-06-22T09:54:54;7;6;
63305;PMS5003;50735;52.060;1.248;2023-06-22T09:57:25;6;4;
63305;PMS5003;50735;52.060;1.248;2023-06-22T09:59:58;5;5;
63305;PMS5003;50735;52.060;1.248;2023-06-22T10:02:29;5;5;
63305;PMS5003;50735;52.060;1.248;2023-06-22T10:05:01;9;6;
63305;PMS5003;50735;52.060;1.248;2023-06-22T10:07:33;5;5;
63305;PMS5003;50735;52.060;1.248;2023-06-22T10:10:04;6;6;
63305;PMS5003;50735;52.060;1.248;2023-06-22T10:12:41;6;6;
63305;PMS5003;50735;52.060;1.248;2023-06-22T10:15:15;3;3;
63305;PMS5003;50735;52.060;1.248;2023-06-22T10:17:47;4;4;
63305;PMS5003;50735;52.060;1.248;2023-06-22T10:20:19;4;4;
63305;PMS5003;50735;52.060;1.248;2023-06-22T10:22:50;4;4;
63305;PMS5003;50735;52.060;1.248;2023-06-22T10:25:22;6;5;
63305;PMS5003;50735;52.060;1.248;2023-06-22T10:27:54;5;5;
63305;PMS5003;50735;52.060;1.248;2023-06-22T10:30:25;7;5;
63305;PMS5003;50735;52.060;1.248;2023-06-22T10:32:57;5;5;
63305;PMS5003;50735;52.060;1.248;2023-06-22T10:35:29;4;4;
63305;PMS5003;50735;52.060;1.248;2023-06-22T10:38:00;7;7;
63305;PMS5003;50735;52.060;1.248;2023-06-22T10:40:32;5;5;
63305;PMS5003;50735;52.060;1.248;2023-06-22T10:43:04;9;6;
63305;PMS5003;50735;52.060;1.248;2023-06-22T10:45:36;9;9;
63305;PMS5003;50735;52.060;1.248;2023-06-22T10:48:08;8;8;
63305;PMS5003;50735;52.060;1.248;2023-06-22T10:50:39;5;5;
63305;PMS5003;50735;52.060;1.248;2023-06-22T10:53:11;10;5;
63305;PMS5003;50735;52.060;1.248;2023-06-22T10:55:42;7;7;
63305;PMS5003;50735;52.060;1.248;2023-06-22T10:58:14;8;6;
63305;PMS5003;50735;52.060;1.248;2023-06-22T11:00:46;7;5;
63305;PMS5003;50735;52.060;1.248;2023-06-22T11:03:17;4;4;
63305;PMS5003;50735;52.060;1.248;2023-06-22T11:05:49;6;4;
63305;PMS5003;50735;52.060;1.248;2023-06-22T11:08:21;6;5;
63305;PMS5003;50735;52.060;1.248;2023-06-22T11:10:52;7;7;
63305;PMS5003;50735;52.060;1.248;2023-06-22T11:13:24;4;4;
63305;PMS5003;50735;52.060;1.248;2023-06-22T11:15:56;6;6;
63305;PMS5003;50735;52.060;1.248;2023-06-22T11:18:27;9;6;
63305;PMS5003;50735;52.060;1.248;2023-06-22T11:20:59;9;7;
63305;PMS5003;50735;52.060;1.248;2023-06-22T11:23:31;7;7;
63305;PMS5003;50735;52.060;1.248;2023-06-22T11:26:03;4;4;
63305;PMS5003;50735;52.060;1.248;2023-06-22T11:28:35;7;6;
63305;PMS5003;50735;52.060;1.248;2023-06-22T11:31:07;6;6;
63305;PMS5003;50735;52.060;1.248;2023-06-22T11:33:38;7;6;
63305;PMS5003;50735;52.060;1.248;2023-06-22T11:36:10;8;6;
63305;PMS5003;50735;52.060;1.248;2023-06-22T11:38:42;5;5;
63305;PMS5003;50735;52.060;1.248;2023-06-22T11:41:13;5;4;
63305;PMS5003;50735;52.060;1.248;2023-06-22T11:43:45;3;3;
63305;PMS5003;50735;52.060;1.248;2023-06-22T11:46:17;6;6;
63305;PMS5003;50735;52.060;1.248;2023-06-22T11:48:48;3;3;
63305;PMS5003;50735;52.060;1.248;2023-06-22T11:51:21;6;6;
63305;PMS5003;50735;52.060;1.248;2023-06-22T11:53:53;9;7;
63305;PMS5003;50735;52.060;1.248;2023-06-22T11:56:25;4;4;
63305;PMS5003;50735;52.060;1.248;2023-06-22T11:58:56;7;7;
63305;PMS5003;50735;52.060;1.248;2023-06-22T12:01:28;8;6;
63305;PMS5003;50735;52.060;1.248;2023-06-22T12:04:00;5;5;
63305;PMS5003;50735;52.060;1.248;2023-06-22T12:06:31;8;5;
63305;PMS5003;50735;52.060;1.248;2023-06-22T12:09:03;6;6;
63305;PMS5003;50735;52.060;1.248;2023-06-22T12:11:35;7;6;
63305;PMS5003;50735;52.060;1.248;2023-06-22T12:14:06;8;8;
63305;PMS5003;50735;52.060;1.248;2023-06-22T12:16:38;9;7;
63305;PMS5003;50735;52.060;1.248;2023-06-22T12:19:10;7;7;
63305;PMS5003;50735;52.060;1.248;2023-06-22T12:21:42;10;7;
63305;PMS5003;50735;52.060;1.248;2023-06-22T12:24:14;7;6;
63305;PMS5003;50735;52.060;1.248;2023-06-22T12:26:45;6;4;
63305;PMS5003;50735;52.060;1.248;2023-06-22T12:29:17;8;8;
63305;PMS5003;50735;52.060;1.248;2023-06-22T12:31:49;8;6;
63305;PMS5003;50735;52.060;1.248;2023-06-22T12:34:20;8;6;
63305;PMS5003;50735;52.060;1.248;2023-06-22T12:36:53;8;8;
63305;PMS5003;50735;52.060;1.248;2023-06-22T12:39:25;5;5;
63305;PMS5003;50735;52.060;1.248;2023-06-22T12:41:56;9;9;
63305;PMS5003;50735;52.060;1.248;2023-06-22T12:44:28;9;7;
63305;PMS5003;50735;52.060;1.248;2023-06-22T12:47:00;11;8;
63305;PMS5003;50735;52.060;1.248;2023-06-22T12:49:31;8;7;
63305;PMS5003;50735;52.060;1.248;2023-06-22T12:52:08;5;5;
63305;PMS5003;50735;52.060;1.248;2023-06-22T12:54:41;6;6;
63305;PMS5003;50735;52.060;1.248;2023-06-22T12:57:13;8;8;
63305;PMS5003;50735;52.060;1.248;2023-06-22T12:59:45;7;5;
63305;PMS5003;50735;52.060;1.248;2023-06-22T13:02:16;6;5;
63305;PMS5003;50735;52.060;1.248;2023-06-22T13:04:48;7;7;
63305;PMS5003;50735;52.060;1.248;2023-06-22T13:07:20;4;4;
63305;PMS5003;50735;52.060;1.248;2023-06-22T13:09:52;4;3;
63305;PMS5003;50735;52.060;1.248;2023-06-22T13:12:23;5;5;
63305;PMS5003;50735;52.060;1.248;2023-06-22T13:14:55;4;4;
63305;PMS5003;50735;52.060;1.248;2023-06-22T13:17:27;5;5;
63305;PMS5003;50735;52.060;1.248;2023-06-22T13:19:58;5;5;
63305;PMS5003;50735;52.060;1.248;2023-06-22T13:22:31;6;5;
63305;PMS5003;50735;52.060;1.248;2023-06-22T13:25:04;5;5;
63305;PMS5003;50735;52.060;1.248;2023-06-22T13:27:36;5;5;
63305;PMS5003;50735;52.060;1.248;2023-06-22T13:30:08;6;5;
63305;PMS5003;50735;52.060;1.248;2023-06-22T13:32:40;6;4;
63305;PMS5003;50735;52.060;1.248;2023-06-22T13:35:13;6;4;
63305;PMS5003;50735;52.060;1.248;2023-06-22T13:37:44;6;4;
63305;PMS5003;50735;52.060;1.248;2023-06-22T13:40:16;4;4;
63305;PMS5003;50735;52.060;1.248;2023-06-22T13:42:48;6;4;
63305;PMS5003;50735;52.060;1.248;2023-06-22T13:45:21;4;4;
63305;PMS5003;50735;52.060;1.248;2023-06-22T13:47:53;4;4;
63305;PMS5003;50735;52.060;1.248;2023-06-22T13:50:24;4;4;
63305;PMS5003;50735;52.060;1.248;2023-06-22T13:52:56;6;6;
63305;PMS5003;50735;52.060;1.248;2023-06-22T13:55:28;6;6;
63305;PMS5003;50735;52.060;1.248;2023-06-22T13:57:59;3;3;
63305;PMS5003;50735;52.060;1.248;2023-06-22T14:00:31;5;5;
63305;PMS5003;50735;52.060;1.248;2023-06-22T14:03:03;5;3;
63305;PMS5003;50735;52.060;1.248;2023-06-22T14:05:34;3;3;
63305;PMS5003;50735;52.060;1.248;2023-06-22T14:08:06;5;4;
63305;PMS5003;50735;52.060;1.248;2023-06-22T14:10:38;7;4;
63305;PMS5003;50735;52.060;1.248;2023-06-22T14:13:09;6;5;
63305;PMS5003;50735;52.060;1.248;2023-06-22T14:15:41;4;4;
63305;PMS5003;50735;52.060;1.248;2023-06-22T14:18:12;4;4;
63305;PMS5003;50735;52.060;1.248;2023-06-22T14:20:44;4;4;
63305;PMS5003;50735;52.060;1.248;2023-06-22T14:23:16;4;4;
63305;PMS5003;50735;52.060;1.248;2023-06-22T14:25:47;4;4;
63305;PMS5003;50735;52.060;1.248;2023-06-22T14:28:19;5;5;
63305;PMS5003;50735;52.060;1.248;2023-06-22T14:30:51;4;3;
63305;PMS5003;50735;52.060;1.248;2023-06-22T14:33:22;4;4;
63305;PMS5003;50735;52.060;1.248;2023-06-22T14:35:54;3;3;
63305;PMS5003;50735;52.060;1.248;2023-06-22T14:38:26;1;1;
63305;PMS5003;50735;52.060;1.248;2023-06-22T14:40:57;4;3;
63305;PMS5003;50735;52.060;1.248;2023-06-22T14:43:29;4;4;
63305;PMS5003;50735;52.060;1.248;2023-06-22T14:46:01;4;4;
63305;PMS5003;50735;52.060;1.248;2023-06-22T14:48:32;3;3;
63305;PMS5003;50735;52.060;1.248;2023-06-22T14:51:04;2;2;
63305;PMS5003;50735;52.060;1.248;2023-06-22T14:53:36;4;3;
63305;PMS5003;50735;52.060;1.248;2023-06-22T14:56:08;4;4;
63305;PMS5003;50735;52.060;1.248;2023-06-22T14:58:40;5;5;
63305;PMS5003;50735;52.060;1.248;2023-06-22T15:01:12;3;3;
63305;PMS5003;50735;52.060;1.248;2023-06-22T15:03:45;2;2;
63305;PMS5003;50735;52.060;1.248;2023-06-22T15:06:17;4;4;
63305;PMS5003;50735;52.060;1.248;2023-06-22T15:08:48;3;3;
63305;PMS5003;50735;52.060;1.248;2023-06-22T15:11:20;4;4;
63305;PMS5003;50735;52.060;1.248;2023-06-22T15:13:51;5;3;
63305;PMS5003;50735;52.060;1.248;2023-06-22T15:16:23;4;4;
63305;PMS5003;50735;52.060;1.248;2023-06-22T15:18:55;4;4;
63305;PMS5003;50735;52.060;1.248;2023-06-22T15:21:26;8;5;
63305;PMS5003;50735;52.060;1.248;2023-06-22T15:23:58;5;5;
63305;PMS5003;50735;52.060;1.248;2023-06-22T15:26:30;6;4;
63305;PMS5003;50735;52.060;1.248;2023-06-22T15:29:01;5;5;
63305;PMS5003;50735;52.060;1.248;2023-06-22T15:31:33;4;4;
63305;PMS5003;50735;52.060;1.248;2023-06-22T15:34:05;3;3;
63305;PMS5003;50735;52.060;1.248;2023-06-22T15:36:37;4;4;
63305;PMS5003;50735;52.060;1.248;2023-06-22T15:39:09;5;4;
63305;PMS5003;50735;52.060;1.248;2023-06-22T15:41:42;4;4;
63305;PMS5003;50735;52.060;1.248;2023-06-22T15:44:13;4;4;
63305;PMS5003;50735;52.060;1.248;2023-06-22T15:46:45;4;4;
63305;PMS5003;50735;52.060;1.248;2023-06-22T15:49:17;7;6;
63305;PMS5003;50735;52.060;1.248;2023-06-22T15:51:48;4;4;
63305;PMS5003;50735;52.060;1.248;2023-06-22T15:54:20;4;4;
63305;PMS5003;50735;52.060;1.248;2023-06-22T15:56:52;5;5;
63305;PMS5003;50735;52.060;1.248;2023-06-22T15:59:23;5;4;
63305;PMS5003;50735;52.060;1.248;2023-06-22T16:01:55;5;5;
63305;PMS5003;50735;52.060;1.248;2023-06-22T16:04:27;7;6;
63305;PMS5003;50735;52.060;1.248;2023-06-22T16:06:59;6;6;
63305;PMS5003;50735;52.060;1.248;2023-06-22T16:09:30;4;4;
63305;PMS5003;50735;52.060;1.248;2023-06-22T16:12:02;6;6;
63305;PMS5003;50735;52.060;1.248;2023-06-22T16:14:34;5;5;
63305;PMS5003;50735;52.060;1.248;2023-06-22T16:17:06;4;4;
63305;PMS5003;50735;52.060;1.248;2023-06-22T16:19:38;4;4;
63305;PMS5003;50735;52.060;1.248;2023-06-22T16:22:09;8;6;
63305;PMS5003;50735;52.060;1.248;2023-06-22T16:24:41;5;3;
63305;PMS5003;50735;52.060;1.248;2023-06-22T16:27:13;7;6;
63305;PMS5003;50735;52.060;1.248;2023-06-22T16:29:44;8;7;
63305;PMS5003;50735;52.060;1.248;2023-06-22T16:32:16;5;5;
63305;PMS5003;50735;52.060;1.248;2023-06-22T16:34:48;5;5;
63305;PMS5003;50735;52.060;1.248;2023-06-22T16:37:21;4;4;
63305;PMS5003;50735;52.060;1.248;2023-06-22T16:39:52;6;4;
63305;PMS5003;50735;52.060;1.248;2023-06-22T16:42:24;5;5;
63305;PMS5003;50735;52.060;1.248;2023-06-22T16:44:56;6;6;
63305;PMS5003;50735;52.060;1.248;2023-06-22T16:47:27;5;5;
63305;PMS5003;50735;52.060;1.248;2023-06-22T16:49:59;5;5;
63305;PMS5003;50735;52.060;1.248;2023-06-22T16:52:32;7;7;
63305;PMS5003;50735;52.060;1.248;2023-06-22T16:55:04;6;6;
63305;PMS5003;50735;52.060;1.248;2023-06-22T16:57:37;4;4;
63305;PMS5003;50735;52.060;1.248;2023-06-22T17:00:09;3;3;
63305;PMS5003;50735;52.060;1.248;2023-06-22T17:02:43;3;3;
63305;PMS5003;50735;52.060;1.248;2023-06-22T17:05:17;5;5;
63305;PMS5003;50735;52.060;1.248;2023-06-22T17:07:51;4;4;
63305;PMS5003;50735;52.060;1.248;2023-06-22T17:10:24;6;6;